createdAt,value
2018-09-11T00:02:14.589Z,4.30
2018-09-11T00:04:43.000Z,4.80
2018-09-11T00:07:11.407Z,4.60
2018-09-11T00:09:39.793Z,3.87
2018-09-11T00:12:08.124Z,4.00
2018-09-11T00:14:36.502Z,3.90
2018-09-11T00:17:05.120Z,4.80
2018-09-11T00:19:33.528Z,4.63
2018-09-11T00:22:01.927Z,5.77
2018-09-11T00:24:30.279Z,4.83
2018-09-11T00:26:58.690Z,4.00
2018-09-11T00:29:27.105Z,4.83
2018-09-11T00:31:55.483Z,4.83
2018-09-11T00:34:23.885Z,4.07
2018-09-11T00:36:52.243Z,3.67
2018-09-11T00:39:20.690Z,8.17
2018-09-11T00:41:49.418Z,5.30
2018-09-11T00:44:17.885Z,4.13
2018-09-11T00:46:46.225Z,3.93
2018-09-11T00:49:14.629Z,4.60
2018-09-11T00:51:43.051Z,3.53
2018-09-11T00:54:11.399Z,4.13
2018-09-11T00:56:39.830Z,4.43
2018-09-11T00:59:08.196Z,3.90
2018-09-11T01:01:36.565Z,4.40
2018-09-11T01:04:05.266Z,3.73
2018-09-11T01:06:33.663Z,4.13
2018-09-11T01:09:02.100Z,3.60
2018-09-11T01:11:30.467Z,4.10
2018-09-11T01:13:58.955Z,4.27
2018-09-11T01:16:27.331Z,3.87
2018-09-11T01:18:55.727Z,4.10
2018-09-11T01:21:24.193Z,3.93
2018-09-11T01:23:52.535Z,3.83
2018-09-11T01:26:20.980Z,3.80
2018-09-11T01:28:49.433Z,4.00
2018-09-11T01:31:17.862Z,4.17
2018-09-11T01:33:46.249Z,4.20
2018-09-11T01:36:14.679Z,3.80
2018-09-11T01:38:43.098Z,3.90
2018-09-11T01:41:11.475Z,4.33
2018-09-11T01:43:39.923Z,4.07
2018-09-11T01:46:08.408Z,3.80
2018-09-11T01:48:36.837Z,3.90
2018-09-11T01:51:05.228Z,3.90
2018-09-11T01:53:33.591Z,3.87
2018-09-11T01:56:01.957Z,3.10
2018-09-11T01:58:30.299Z,4.00
2018-09-11T02:00:58.641Z,4.50
2018-09-11T02:03:27.079Z,4.53
2018-09-11T02:05:55.377Z,4.07
2018-09-11T02:08:23.777Z,3.73
2018-09-11T02:10:52.252Z,4.17
2018-09-11T02:13:20.614Z,4.10
2018-09-11T02:15:48.988Z,4.20
2018-09-11T02:18:17.369Z,3.97
2018-09-11T02:20:45.761Z,3.70
2018-09-11T02:23:14.062Z,5.87
2018-09-11T02:25:42.408Z,3.90
2018-09-11T02:28:10.778Z,4.47
2018-09-11T02:30:39.109Z,3.50
2018-09-11T02:33:07.411Z,3.87
2018-09-11T02:35:35.779Z,4.03
2018-09-11T02:38:04.377Z,4.33
2018-09-11T02:40:32.750Z,4.97
2018-09-11T02:43:01.112Z,3.40
2018-09-11T02:45:29.536Z,5.50
2018-09-11T02:47:57.835Z,4.13
2018-09-11T02:50:26.278Z,3.83
2018-09-11T02:52:54.643Z,4.07
2018-09-11T02:55:23.075Z,4.63
2018-09-11T02:57:51.499Z,4.67
2018-09-11T03:00:20.017Z,5.53
2018-09-11T03:02:48.414Z,4.90
2018-09-11T03:05:16.745Z,4.33
2018-09-11T03:07:45.151Z,4.00
2018-09-11T03:10:13.528Z,3.90
2018-09-11T03:12:41.916Z,5.43
2018-09-11T03:15:10.359Z,3.97
2018-09-11T03:17:38.783Z,4.17
2018-09-11T03:20:07.225Z,4.20
2018-09-11T03:22:35.633Z,4.40
2018-09-11T03:25:04.071Z,4.33
2018-09-11T03:27:32.437Z,4.20
2018-09-11T03:30:00.831Z,4.17
2018-09-11T03:32:29.229Z,4.80
2018-09-11T03:34:57.555Z,4.30
2018-09-11T03:37:25.955Z,5.93
2018-09-11T03:39:54.397Z,4.73
2018-09-11T03:42:22.765Z,4.37
2018-09-11T03:44:51.159Z,4.20
2018-09-11T03:47:19.487Z,4.30
2018-09-11T03:49:47.868Z,4.53
2018-09-11T03:52:16.411Z,4.90
2018-09-11T03:54:44.779Z,4.50
2018-09-11T03:57:13.175Z,5.47
2018-09-11T03:59:41.539Z,4.83
2018-09-11T04:02:10.085Z,4.83
2018-09-11T04:04:38.448Z,4.90
2018-09-11T04:07:06.854Z,5.67
2018-09-11T04:09:35.294Z,4.53
2018-09-11T04:12:04.127Z,6.60
2018-09-11T04:14:32.525Z,5.13
2018-09-11T04:17:00.859Z,4.50
2018-09-11T04:19:29.233Z,5.27
2018-09-11T04:21:57.590Z,4.17
2018-09-11T04:24:25.901Z,4.30
2018-09-11T04:26:54.245Z,5.23
2018-09-11T04:29:22.704Z,4.30
2018-09-11T04:31:51.189Z,4.30
2018-09-11T04:34:19.485Z,5.17
2018-09-11T04:36:47.848Z,4.13
2018-09-11T04:39:16.240Z,7.20
2018-09-11T04:41:44.561Z,6.13
2018-09-11T04:44:13.033Z,4.83
2018-09-11T04:46:41.333Z,4.10
2018-09-11T04:49:09.725Z,5.63
2018-09-11T04:51:38.029Z,4.43
2018-09-11T04:54:06.367Z,3.80
2018-09-11T04:56:34.752Z,5.80
2018-09-11T04:59:03.171Z,5.47
2018-09-11T05:01:31.559Z,5.07
2018-09-11T05:03:59.929Z,4.67
2018-09-11T05:06:28.361Z,4.00
2018-09-11T05:08:56.749Z,5.10
2018-09-11T05:11:25.217Z,4.97
2018-09-11T05:13:53.563Z,4.33
2018-09-11T05:16:21.959Z,4.37
2018-09-11T05:18:50.371Z,4.43
2018-09-11T05:21:18.660Z,5.30
2018-09-11T05:23:47.008Z,5.30
2018-09-11T05:26:15.326Z,6.03
2018-09-11T05:28:43.659Z,4.80
2018-09-11T05:31:12.016Z,5.17
2018-09-11T05:33:40.393Z,4.63
2018-09-11T05:36:08.819Z,5.20
2018-09-11T05:38:37.701Z,5.03
2018-09-11T05:41:06.255Z,4.80
2018-09-11T05:43:34.636Z,5.13
2018-09-11T05:46:03.104Z,5.30
2018-09-11T05:48:31.523Z,4.83
2018-09-11T05:51:00.065Z,5.60
2018-09-11T05:53:28.548Z,5.33
2018-09-11T05:55:56.909Z,5.03
2018-09-11T05:58:25.372Z,5.00
2018-09-11T06:00:53.694Z,5.63
2018-09-11T06:03:22.264Z,5.00
2018-09-11T06:05:51.406Z,5.40
2018-09-11T06:08:21.317Z,4.57
2018-09-11T06:10:49.663Z,5.00
2018-09-11T06:13:18.085Z,4.90
2018-09-11T06:15:46.450Z,4.30
2018-09-11T06:18:15.496Z,5.57
2018-09-11T06:20:44.099Z,4.80
2018-09-11T06:23:12.571Z,6.47
2018-09-11T06:25:40.997Z,10.37
2018-09-11T06:28:09.450Z,7.27
2018-09-11T06:30:38.372Z,4.77
2018-09-11T06:33:06.754Z,4.10
2018-09-11T06:35:36.067Z,5.60
2018-09-11T06:38:04.411Z,4.37
2018-09-11T06:40:32.766Z,4.57
2018-09-11T06:43:01.200Z,4.30
2018-09-11T06:45:29.781Z,4.70
2018-09-11T06:47:58.143Z,5.30
2018-09-11T06:50:26.574Z,4.13
2018-09-11T06:52:54.956Z,4.33
2018-09-11T06:55:23.297Z,5.30
2018-09-11T06:57:51.714Z,4.60
2018-09-11T07:00:20.108Z,4.23
2018-09-11T07:02:48.505Z,4.60
2018-09-11T07:05:16.916Z,4.43
2018-09-11T07:07:45.635Z,6.33
2018-09-11T07:10:14.210Z,6.00
2018-09-11T07:12:42.613Z,4.20
2018-09-11T07:15:10.948Z,3.90
2018-09-11T07:17:41.469Z,4.67
2018-09-11T07:20:10.756Z,4.63
2018-09-11T07:22:38.863Z,4.60
2018-09-11T07:25:08.059Z,5.37
2018-09-11T07:27:36.861Z,4.67
2018-09-11T07:30:06.092Z,4.40
2018-09-11T07:32:34.635Z,4.77
2018-09-11T07:35:03.083Z,5.30
2018-09-11T07:37:31.534Z,5.03
2018-09-11T07:39:59.858Z,6.40
2018-09-11T07:42:28.229Z,4.93
2018-09-11T07:44:56.588Z,7.73
2018-09-11T07:47:25.458Z,5.17
2018-09-11T07:49:53.987Z,5.00
2018-09-11T07:52:22.492Z,4.43
2018-09-11T07:54:50.839Z,5.30
2018-09-11T07:57:19.195Z,5.40
2018-09-11T07:59:47.537Z,5.30
2018-09-11T08:02:15.973Z,5.53
2018-09-11T08:04:44.341Z,5.93
2018-09-11T08:07:12.819Z,4.60
2018-09-11T08:09:41.276Z,4.67
2018-09-11T08:12:09.609Z,4.90
2018-09-11T08:14:38.001Z,5.40
2018-09-11T08:17:06.427Z,4.97
2018-09-11T08:19:34.748Z,4.10
2018-09-11T08:22:03.132Z,5.30
2018-09-11T08:24:31.600Z,5.23
2018-09-11T08:27:00.432Z,4.80
2018-09-11T08:29:29.104Z,6.40
2018-09-11T08:31:57.406Z,4.33
2018-09-11T08:34:25.964Z,7.13
2018-09-11T08:36:55.116Z,7.10
2018-09-11T08:39:24.743Z,4.30
2018-09-11T08:41:53.114Z,5.00
2018-09-11T08:44:21.805Z,4.90
2018-09-11T08:46:50.534Z,4.57
2018-09-11T08:49:18.864Z,5.67
2018-09-11T08:51:47.380Z,5.30
2018-09-11T08:54:16.125Z,4.80
2018-09-11T08:56:44.696Z,5.57
2018-09-11T08:59:13.741Z,4.00
2018-09-11T09:01:42.047Z,4.63
2018-09-11T09:04:10.439Z,5.60
2018-09-11T09:06:38.857Z,4.90
2018-09-11T09:09:10.393Z,4.50
2018-09-11T09:11:40.230Z,5.80
2018-09-11T09:14:09.031Z,4.90
2018-09-11T09:16:37.460Z,4.27
2018-09-11T09:19:05.889Z,5.13
2018-09-11T09:21:34.224Z,5.27
2018-09-11T09:24:02.675Z,4.17
2018-09-11T09:26:31.203Z,5.60
2018-09-11T09:28:59.647Z,4.30
2018-09-11T09:31:27.969Z,5.43
2018-09-11T09:33:56.327Z,4.90
2018-09-11T09:36:24.799Z,4.67
2018-09-11T09:38:53.183Z,5.03
2018-09-11T09:41:22.242Z,4.70
2018-09-11T09:43:50.943Z,5.80
2018-09-11T09:46:19.529Z,5.10
2018-09-11T09:48:48.241Z,5.73
2018-09-11T09:51:16.549Z,4.70
2018-09-11T09:53:45.633Z,4.53
2018-09-11T09:56:14.013Z,4.40
2018-09-11T09:58:42.645Z,4.17
2018-09-11T10:01:16.272Z,4.10
2018-09-11T10:03:45.415Z,5.47
2018-09-11T10:06:14.481Z,4.53
2018-09-11T10:08:42.876Z,4.33
2018-09-11T10:11:11.865Z,4.30
2018-09-11T10:13:40.951Z,3.80
2018-09-11T10:16:09.384Z,4.20
2018-09-11T10:18:37.783Z,5.00
2018-09-11T10:21:06.405Z,4.57
2018-09-11T10:23:34.782Z,5.17
2018-09-11T10:26:03.178Z,4.17
2018-09-11T10:28:31.574Z,4.10
2018-09-11T10:30:59.882Z,4.00
2018-09-11T10:33:28.608Z,3.60
2018-09-11T10:35:57.657Z,4.67
2018-09-11T10:38:25.975Z,4.60
2018-09-11T10:40:55.055Z,4.40
2018-09-11T10:43:23.453Z,4.30
2018-09-11T10:45:51.792Z,4.33
2018-09-11T10:48:20.105Z,4.83
2018-09-11T10:50:48.562Z,5.10
2018-09-11T10:53:16.894Z,4.87
2018-09-11T10:55:45.260Z,3.63
2018-09-11T10:58:13.619Z,4.73
2018-09-11T11:00:42.077Z,3.97
2018-09-11T11:03:10.460Z,3.70
2018-09-11T11:05:38.821Z,4.93
2018-09-11T11:08:07.339Z,4.83
2018-09-11T11:10:35.788Z,5.77
2018-09-11T11:13:04.198Z,4.50
2018-09-11T11:15:32.517Z,7.20
2018-09-11T11:18:00.892Z,4.50
2018-09-11T11:20:29.296Z,4.17
2018-09-11T11:22:58.147Z,3.83
2018-09-11T11:25:26.531Z,4.73
2018-09-11T11:27:54.894Z,4.13
2018-09-11T11:30:23.317Z,4.43
2018-09-11T11:32:51.967Z,5.37
2018-09-11T11:35:20.280Z,4.20
2018-09-11T11:37:48.644Z,4.03
2018-09-11T11:40:17.025Z,5.10
2018-09-11T11:42:45.515Z,4.33
2018-09-11T11:45:14.112Z,3.93
2018-09-11T11:47:42.491Z,3.60
2018-09-11T11:50:10.891Z,3.97
2018-09-11T11:52:39.266Z,5.00
2018-09-11T11:55:07.728Z,3.87
2018-09-11T11:57:36.042Z,4.80
2018-09-11T12:00:04.500Z,4.17
2018-09-11T12:02:32.929Z,4.30
2018-09-11T12:05:01.325Z,3.90
2018-09-11T12:07:29.686Z,3.70
2018-09-11T12:09:58.309Z,5.77
2018-09-11T12:12:26.826Z,4.47
2018-09-11T12:14:55.349Z,4.37
2018-09-11T12:17:23.747Z,4.03
2018-09-11T12:19:52.367Z,3.90
2018-09-11T12:22:20.795Z,3.73
2018-09-11T12:24:49.142Z,5.23
2018-09-11T12:27:17.537Z,3.40
2018-09-11T12:29:45.876Z,4.23
2018-09-11T12:32:14.694Z,5.03
2018-09-11T12:34:43.092Z,4.80
2018-09-11T12:37:11.533Z,6.03
2018-09-11T12:39:39.891Z,5.27
2018-09-11T12:42:08.248Z,4.87
2018-09-11T12:44:36.629Z,4.20
2018-09-11T12:47:06.002Z,4.93
2018-09-11T12:49:34.168Z,4.43
2018-09-11T12:52:02.612Z,4.70
2018-09-11T12:54:31.024Z,5.00
2018-09-11T12:56:59.451Z,4.90
2018-09-11T12:59:27.785Z,4.87
2018-09-11T13:01:56.166Z,4.63
2018-09-11T13:04:24.554Z,4.80
2018-09-11T13:06:52.918Z,4.77
2018-09-11T13:09:21.302Z,5.17
2018-09-11T13:11:49.637Z,5.00
2018-09-11T13:14:17.966Z,3.97
2018-09-11T13:16:46.273Z,4.07
2018-09-11T13:19:14.668Z,4.47
2018-09-11T13:21:43.132Z,5.20
2018-09-11T13:24:11.588Z,5.33
2018-09-11T13:26:39.999Z,4.47
2018-09-11T13:29:08.341Z,5.03
2018-09-11T13:31:36.716Z,4.67
2018-09-11T13:34:05.170Z,4.50
2018-09-11T13:36:33.570Z,4.50
2018-09-11T13:39:01.921Z,4.20
2018-09-11T13:41:30.307Z,4.80
2018-09-11T13:43:58.653Z,4.93
2018-09-11T13:46:27.088Z,4.93
2018-09-11T13:48:55.583Z,4.73
2018-09-11T13:51:23.902Z,4.50
2018-09-11T13:53:52.263Z,4.73
2018-09-11T13:56:20.711Z,4.23
2018-09-11T13:58:49.143Z,4.07
2018-09-11T14:01:17.560Z,4.30
2018-09-11T14:03:45.964Z,4.10
2018-09-11T14:06:14.517Z,4.43
2018-09-11T14:08:42.926Z,6.80
2018-09-11T14:11:11.304Z,4.80
2018-09-11T14:13:39.814Z,3.83
2018-09-11T14:16:08.177Z,4.60
2018-09-11T14:18:36.599Z,5.90
2018-09-11T14:21:06.025Z,5.93
2018-09-11T14:23:34.427Z,4.67
2018-09-11T14:26:03.003Z,4.13
2018-09-11T14:28:31.365Z,5.00
2018-09-11T14:30:59.762Z,4.40
2018-09-11T14:33:28.183Z,5.10
2018-09-11T14:35:56.583Z,4.80
2018-09-11T14:38:24.969Z,5.37
2018-09-11T14:40:53.440Z,4.90
2018-09-11T14:43:21.829Z,4.50
2018-09-11T14:45:50.252Z,4.03
2018-09-11T14:48:18.677Z,4.10
2018-09-11T14:50:47.038Z,4.33
2018-09-11T14:53:15.413Z,3.60
2018-09-11T14:55:43.787Z,3.67
2018-09-11T14:58:12.127Z,4.80
2018-09-11T15:00:40.560Z,6.27
2018-09-11T15:03:08.859Z,3.50
2018-09-11T15:05:37.213Z,3.90
2018-09-11T15:08:05.764Z,4.97
2018-09-11T15:10:34.170Z,4.43
2018-09-11T15:13:02.570Z,4.37
2018-09-11T15:15:31.064Z,5.00
2018-09-11T15:17:59.623Z,3.50
2018-09-11T15:20:28.012Z,4.73
2018-09-11T15:22:57.081Z,4.57
2018-09-11T15:25:26.317Z,4.37
2018-09-11T15:27:55.061Z,4.83
2018-09-11T15:30:24.356Z,5.80
2018-09-11T15:32:53.456Z,4.20
2018-09-11T15:35:22.801Z,4.30
2018-09-11T15:37:52.115Z,4.87
2018-09-11T15:40:21.192Z,4.60
2018-09-11T15:42:49.926Z,5.20
2018-09-11T15:45:18.652Z,4.30
2018-09-11T15:47:47.204Z,4.77
2018-09-11T15:50:15.574Z,3.80
2018-09-11T15:52:43.956Z,3.93
2018-09-11T15:55:12.390Z,4.97
2018-09-11T15:57:40.824Z,4.53
2018-09-11T16:00:09.241Z,5.13
2018-09-11T16:02:37.575Z,4.60
2018-09-11T16:05:05.923Z,4.03
2018-09-11T16:07:34.348Z,4.80
2018-09-11T16:10:02.687Z,4.33
2018-09-11T16:12:31.101Z,4.30
2018-09-11T16:14:59.511Z,4.10
2018-09-11T16:17:27.921Z,4.63
2018-09-11T16:19:56.233Z,4.50
2018-09-11T16:22:24.613Z,4.33
2018-09-11T16:24:53.025Z,4.90
2018-09-11T16:27:21.320Z,4.30
2018-09-11T16:29:49.709Z,3.47
2018-09-11T16:32:18.085Z,6.80
2018-09-11T16:34:46.652Z,5.50
2018-09-11T16:37:15.058Z,5.20
2018-09-11T16:39:43.435Z,4.37
2018-09-11T16:42:11.855Z,3.80
2018-09-11T16:44:40.300Z,4.47
2018-09-11T16:47:08.606Z,4.60
2018-09-11T16:49:37.005Z,5.57
2018-09-11T16:52:05.464Z,5.40
2018-09-11T16:54:33.796Z,5.43
2018-09-11T16:57:02.246Z,7.03
2018-09-11T16:59:30.576Z,5.43
2018-09-11T17:01:58.978Z,6.67
2018-09-11T17:04:27.341Z,4.80
2018-09-11T17:06:55.685Z,5.80
2018-09-11T17:09:24.064Z,8.07
2018-09-11T17:11:52.475Z,5.33
2018-09-11T17:14:20.857Z,6.60
2018-09-11T17:16:49.215Z,5.10
2018-09-11T17:19:17.590Z,4.20
2018-09-11T17:21:45.995Z,6.50
2018-09-11T17:24:14.407Z,7.70
2018-09-11T17:26:42.791Z,5.20
2018-09-11T17:29:11.084Z,4.20
2018-09-11T17:31:40.444Z,6.90
2018-09-11T17:34:08.821Z,5.30
2018-09-11T17:36:37.223Z,4.47
2018-09-11T17:39:09.262Z,5.13
2018-09-11T17:41:38.003Z,4.20
2018-09-11T17:44:06.407Z,5.27
2018-09-11T17:46:34.771Z,5.80
2018-09-11T17:49:03.126Z,6.30
2018-09-11T17:51:31.525Z,5.87
2018-09-11T17:53:59.915Z,6.07
2018-09-11T17:56:28.385Z,5.30
2018-09-11T17:58:56.953Z,5.20
2018-09-11T18:01:25.481Z,5.50
2018-09-11T18:03:54.102Z,4.37
2018-09-11T18:06:22.679Z,5.70
2018-09-11T18:08:51.122Z,5.87
2018-09-11T18:11:19.550Z,5.90
2018-09-11T18:13:47.999Z,6.27
2018-09-11T18:16:16.548Z,5.63
2018-09-11T18:18:44.999Z,6.83
2018-09-11T18:21:13.507Z,5.83
2018-09-11T18:23:42.098Z,6.83
2018-09-11T18:26:10.554Z,6.57
2018-09-11T18:28:38.929Z,8.07
2018-09-11T18:31:07.432Z,7.23
2018-09-11T18:33:35.895Z,6.00
2018-09-11T18:36:04.568Z,6.53
2018-09-11T18:38:32.993Z,6.10
2018-09-11T18:41:01.343Z,6.97
2018-09-11T18:43:29.669Z,6.53
2018-09-11T18:45:58.009Z,7.80
2018-09-11T18:48:26.378Z,6.83
2018-09-11T18:50:54.840Z,6.87
2018-09-11T18:53:23.220Z,10.37
2018-09-11T18:55:51.568Z,7.93
2018-09-11T18:58:19.879Z,6.90
2018-09-11T19:00:48.390Z,6.90
2018-09-11T19:03:16.706Z,6.83
2018-09-11T19:05:45.012Z,9.33
2018-09-11T19:08:14.200Z,10.20
2018-09-11T19:10:43.627Z,7.33
2018-09-11T19:13:12.108Z,7.53
2018-09-11T19:15:40.744Z,8.83
2018-09-11T19:18:09.643Z,7.53
2018-09-11T19:20:39.152Z,6.70
2018-09-11T19:23:07.489Z,6.40
2018-09-11T19:25:36.271Z,7.87
2018-09-11T19:28:05.449Z,6.43
2018-09-11T19:30:34.343Z,7.03
2018-09-11T19:33:03.047Z,6.70
2018-09-11T19:35:32.112Z,7.83
2018-09-11T19:38:00.594Z,6.57
2018-09-11T19:40:29.053Z,6.73
2018-09-11T19:42:57.678Z,6.80
2018-09-11T19:45:26.585Z,7.10
2018-09-11T19:47:55.417Z,7.40
2018-09-11T19:50:24.152Z,7.83
2018-09-11T19:52:52.670Z,9.27
2018-09-11T19:55:21.264Z,7.00
2018-09-11T19:57:50.720Z,6.50
2018-09-11T20:00:19.212Z,7.17
2018-09-11T20:02:47.638Z,8.43
2018-09-11T20:05:16.328Z,8.67
2018-09-11T20:07:45.352Z,7.67
2018-09-11T20:10:14.183Z,9.37
2018-09-11T20:12:43.111Z,6.70
2018-09-11T20:15:11.592Z,6.33
2018-09-11T20:17:40.702Z,6.60
2018-09-11T20:20:09.135Z,8.30
2018-09-11T20:22:39.198Z,8.07
2018-09-11T20:25:08.439Z,8.23
2018-09-11T20:27:38.480Z,7.77
2018-09-11T20:30:07.012Z,8.97
2018-09-11T20:32:35.587Z,7.70
2018-09-11T20:35:04.079Z,7.60
2018-09-11T20:37:32.790Z,7.30
2018-09-11T20:40:01.063Z,8.20
2018-09-11T20:42:29.507Z,7.33
2018-09-11T20:44:57.845Z,7.60
2018-09-11T20:47:26.202Z,8.13
2018-09-11T20:49:54.595Z,7.87
2018-09-11T20:52:22.964Z,7.50
2018-09-11T20:54:51.407Z,7.77
2018-09-11T20:57:19.779Z,8.17
2018-09-11T20:59:48.169Z,8.80
2018-09-11T21:02:16.545Z,7.40
2018-09-11T21:04:45.031Z,8.10
2018-09-11T21:07:13.400Z,7.90
2018-09-11T21:09:42.007Z,7.70
2018-09-11T21:12:10.427Z,7.50
2018-09-11T21:14:38.828Z,7.90
2018-09-11T21:17:07.277Z,7.73
2018-09-11T21:19:35.718Z,7.93
2018-09-11T21:22:04.198Z,8.30
2018-09-11T21:24:32.869Z,7.60
2018-09-11T21:27:01.336Z,6.80
2018-09-11T21:29:29.726Z,7.83
2018-09-11T21:31:58.199Z,7.80
2018-09-11T21:34:26.675Z,8.60
2018-09-11T21:36:55.141Z,8.00
2018-09-11T21:39:23.516Z,8.33
2018-09-11T21:41:51.920Z,8.17
2018-09-11T21:44:20.333Z,7.90
2018-09-11T21:46:48.721Z,8.37
2018-09-11T21:49:17.063Z,9.00
2018-09-11T21:51:45.452Z,8.00
2018-09-11T21:54:13.827Z,10.00
2018-09-11T21:56:42.251Z,8.57
2018-09-11T21:59:10.965Z,9.20
2018-09-11T22:01:44.777Z,8.60
2018-09-11T22:04:13.252Z,8.50
2018-09-11T22:06:41.623Z,10.67
2018-09-11T22:09:11.026Z,7.63
2018-09-11T22:11:39.832Z,7.73
2018-09-11T22:14:08.928Z,7.10
2018-09-11T22:16:37.794Z,8.67
2018-09-11T22:19:06.693Z,9.90
2018-09-11T22:21:35.854Z,7.17
2018-09-11T22:24:04.460Z,8.53
2018-09-11T22:26:33.169Z,8.60
2018-09-11T22:29:01.596Z,7.50
2018-09-11T22:31:30.196Z,7.70
2018-09-11T22:33:58.574Z,7.80
2018-09-11T22:36:26.999Z,8.30
2018-09-11T22:38:55.483Z,9.30
2018-09-11T22:41:23.901Z,7.87
2018-09-11T22:43:52.624Z,8.80
2018-09-11T22:46:21.293Z,7.73
2018-09-11T22:48:49.649Z,8.43
2018-09-11T22:51:18.075Z,8.53
2018-09-11T22:53:46.425Z,8.10
2018-09-11T22:56:14.805Z,7.77
2018-09-11T22:58:43.191Z,9.87
2018-09-11T23:01:11.959Z,8.53
2018-09-11T23:03:40.299Z,8.50
2018-09-11T23:06:08.770Z,8.20
2018-09-11T23:08:37.345Z,8.03
2018-09-11T23:11:05.811Z,7.30
2018-09-11T23:13:34.204Z,7.80
2018-09-11T23:16:02.623Z,8.30
2018-09-11T23:18:31.035Z,7.57
2018-09-11T23:20:59.452Z,8.40
2018-09-11T23:23:27.797Z,7.50
2018-09-11T23:25:56.179Z,7.87
2018-09-11T23:28:24.571Z,7.03
2018-09-11T23:30:52.960Z,7.63
2018-09-11T23:33:21.383Z,9.30
2018-09-11T23:35:49.770Z,8.30
2018-09-11T23:38:18.145Z,8.97
2018-09-11T23:40:46.456Z,9.70
2018-09-11T23:43:14.795Z,9.17
2018-09-11T23:45:43.161Z,8.10
2018-09-11T23:48:11.536Z,8.67
2018-09-11T23:50:39.946Z,9.37
2018-09-11T23:53:08.322Z,8.87
2018-09-11T23:55:36.665Z,7.40
2018-09-11T23:58:05.133Z,7.80
